Skip to main content

NOAA/GLERL Met Station at Chicago, IL

Previous 5 days (top of hour only)
See also Previous 3 Hours (2 minute increments)
Jump down to Data
Switch to [English][Metric]
Zoom: Click and drag, Pan: shift-click and drag, Unzoom: double-click, Unzoom All




Note: Speed = mean wind during 2-minute period at top of hour,
Gust = max wind during 2-minute period at top of hour,
Peak = max wind during entire hour.
• See also 5-day windrose plot


NOAA/GLERL Met Station at Chicago, IL

Previous 5 days (top of hour only)
See also Previous 3 Hours (2 minute increments)
Jump up to Graphs
Switch to [English][Metric]
                  Wind  Wind  Wind   Air   Dew   Rel
                   Spd   Gst   Dir  Temp    Pt   Hum
YYYY-MM-DD   CST   m/s   m/s   deg     C     C     %
2024-02-26 08:00   3.6   4.0    42   4.8   3.5  91.4
2024-02-26 07:00   2.3   2.6    25   4.5   3.9  95.7
2024-02-26 06:00   4.8   5.0     8   4.5   3.5  93.4
2024-02-26 05:00   3.8   4.2     2   5.1   2.7  84.7
2024-02-26 04:00   3.9   4.1   353   5.6   1.7  75.7
2024-02-26 03:00   5.2   5.4   351   6.3   0.7  67.5
2024-02-26 02:00   5.6   5.7   338   8.0   0.2  57.9
2024-02-26 01:00   2.7   4.0   328  10.7  -0.2  46.6
2024-02-26 00:00   3.1   3.4   261  11.6   2.9  54.8
2024-02-25 23:00   0.6   0.9   321  11.1   3.3  58.4
2024-02-25 22:00   5.0   5.4   251  13.2   2.7  48.7
2024-02-25 21:00   7.4   7.6   210  13.5   2.0  45.5
2024-02-25 20:00   7.5   7.8   202  14.4   0.9  39.6
2024-02-25 19:00   5.6   6.2   217  14.6   0.6  38.2
2024-02-25 18:00   7.1   8.2   220  15.0   0.6  37.1
2024-02-25 17:00   7.7   8.3   208  15.3   0.1  35.2
2024-02-25 16:00   7.9   8.6   217  14.8   0.0  36.1
2024-02-25 15:00   6.4   7.1   217  14.0   0.1  38.2
2024-02-25 14:00   7.1   7.9   224  12.1   0.1  43.5
2024-02-25 13:00   4.2   4.8   236  11.0  -0.4  45.0
2024-02-25 12:00  10.0  11.6   232   9.4  -0.8  48.8
2024-02-25 11:00  10.9  12.2   223   6.8  -0.9  58.0
2024-02-25 10:00  12.1  15.1   225   5.1  -1.4  62.9
2024-02-25 09:00  13.1  16.7   211   3.4  -2.2  66.6
2024-02-25 08:00  13.9  15.9   208   2.5  -2.9  67.4
2024-02-25 07:00  13.4  16.0   201   1.9  -3.0  70.2
2024-02-25 06:00  17.0  18.7   200   1.7  -4.0  65.9
2024-02-25 05:00  16.4  19.1   196   1.7  -4.5  63.6
2024-02-25 04:00  16.4  17.9   193   1.3  -5.3  61.3
2024-02-25 03:00  14.5  15.5   195   1.4  -5.7  59.2
2024-02-25 02:00  13.2  14.9   195   1.1  -5.3  62.3
2024-02-25 01:00  10.7  12.2   191   0.9  -5.0  64.6
2024-02-25 00:00  11.3  12.9   198   0.9  -5.4  62.6
2024-02-24 23:00  10.9  12.9   197   1.0  -4.9  64.9
2024-02-24 22:00  10.0  12.7   205   1.2  -5.0  63.3
2024-02-24 21:00   9.8  11.0   204   1.1  -5.5  61.4
2024-02-24 20:00  10.4  11.6   199   0.8  -5.2  64.4
2024-02-24 19:00   9.8  10.2   187   0.8  -4.7  66.9
2024-02-24 18:00   6.2   7.8   170  -0.8  -3.9  79.5
2024-02-24 17:00   5.5   7.4   146  -1.5  -5.8  72.8
2024-02-24 16:00   5.0   5.7   120  -2.1  -6.7  70.7
2024-02-24 15:00   4.0   4.7   106  -2.4  -8.0  65.5
2024-02-24 14:00   1.9   2.8    99  -1.7  -8.5  60.1
2024-02-24 13:00   2.3   2.7   103  -2.0  -9.0  58.9
2024-02-24 12:00   1.5   1.8   333  -3.4  -8.7  66.8
2024-02-24 11:00   2.3   2.9    66  -3.7  -9.4  64.7
2024-02-24 10:00   5.1   5.7    27  -3.9  -9.3  66.1
2024-02-24 09:00   7.0   7.9    16  -4.1  -9.5  66.0
2024-02-24 08:00   8.0   8.7    32  -3.9  -8.6  70.2
2024-02-24 07:00  10.0  11.6    14  -3.9  -9.0  67.9
2024-02-24 06:00  12.0  13.4    16  -3.7  -9.1  66.1
2024-02-24 05:00  11.7  13.0     9  -3.7  -9.1  66.5
2024-02-24 04:00  13.6  14.7    12  -3.2  -8.6  66.4
2024-02-24 03:00  14.6  16.0    10  -2.8  -7.6  69.6
2024-02-24 02:00  15.2  16.8   359  -2.3  -7.4  68.1
2024-02-24 01:00  16.5  17.5     2  -1.9  -6.3  71.7
2024-02-24 00:00  16.5  18.3     7  -1.6  -5.7  73.4
2024-02-23 23:00  17.5  19.0    11  -1.8  -3.3  89.8
2024-02-23 22:00  16.3  18.7     8  -1.3  -1.3  99.9
2024-02-23 21:00  16.6  17.8     6  -1.7  -1.7 100.2
2024-02-23 20:00  15.6  17.1     4  -0.7  -0.6 100.4
2024-02-23 19:00  14.5  15.8     8  -0.1  -0.1 100.3
2024-02-23 18:00  13.1  13.9    17   0.8   0.9 100.4
2024-02-23 17:00   8.2   8.8    19   2.3   1.7  95.5
2024-02-23 16:00   8.6   9.7    18   2.4   2.1  97.9
2024-02-23 15:00   6.9   7.9    17   3.1   2.6  96.4
2024-02-23 14:00   4.9   5.3     7   3.2   3.3 100.4
2024-02-23 13:00   6.3   7.3    24   3.4   1.8  89.0
2024-02-23 12:00   6.9   7.4    19   3.9   1.0  81.2
2024-02-23 11:00   4.3   4.8    25   5.7  -2.7  54.8
2024-02-23 10:00   3.1   3.3   305   5.8  -1.5  59.5
2024-02-23 09:00   6.5   7.0   312   4.8  -0.6  67.9
2024-02-23 08:00   7.1   8.2   306   4.2  -0.1  73.3
2024-02-23 07:00   7.2   7.9   303   4.3   0.1  74.1
2024-02-23 06:00   8.3   9.2   311   5.0   0.2  71.0
2024-02-23 05:00   7.5   7.9   304   5.8   0.2  67.0
2024-02-23 04:00   8.6   9.7   309   6.8   0.1  62.1
2024-02-23 03:00   8.0   9.0   302   7.5   0.3  60.3
2024-02-23 02:00   9.3   9.7   319   8.4   0.5  57.3
2024-02-23 01:00   9.7  10.5   315   9.6   0.0  51.0
2024-02-23 00:00   9.1  10.1   285  10.6  -0.5  45.8
2024-02-22 23:00   8.1   8.8   272  11.8  -1.1  40.7
2024-02-22 22:00   8.4   9.0   264  13.0  -0.8  38.3
2024-02-22 21:00   4.7   5.3   203   9.3   1.0  55.9
2024-02-22 20:00   5.8   6.4   197   9.2   0.1  52.7
2024-02-22 19:00   5.3   5.4   181   6.9  -0.5  59.2
2024-02-22 18:00   5.3   5.4   172   5.6   2.9  82.9
2024-02-22 17:00   3.7   3.9   178   4.5   4.4  99.5
2024-02-22 16:00   1.9   2.0    64   6.1   4.8  91.6
2024-02-22 15:00   3.7   3.7    31   6.2   4.3  87.6
2024-02-22 14:00   4.7   4.8     2   5.6   3.9  88.7
2024-02-22 13:00   5.8   6.0   348   4.6   4.0  95.7
2024-02-22 12:00   6.6   7.3   344   4.5   4.1  97.3
2024-02-22 11:00   7.5   8.0   343   4.0   4.1 100.4
2024-02-22 10:00   6.1   6.4   335   3.7   3.8 100.4
2024-02-22 09:00   5.5   5.9   347   3.6   3.7 100.4
2024-02-22 08:00   4.8   5.0   341   3.7   3.8 100.4
2024-02-22 07:00   6.9   7.3   343   4.1   3.9  98.7
2024-02-22 06:00   2.7   3.0   337   5.4   3.5  87.4
2024-02-22 05:00   1.6   1.9   253   6.0   3.3  82.5
2024-02-22 04:00   4.8   5.0    13   6.6   2.5  75.1
2024-02-22 03:00   4.9   5.2   360   8.4   2.1  64.5
2024-02-22 02:00   1.5   2.2   163   8.1   2.4  67.3
2024-02-22 01:00   6.9   7.7   158   9.0   2.2  62.3
2024-02-22 00:00   6.0   6.4    21   8.6   2.1  63.6
2024-02-21 23:00   2.8   3.2     4   8.2   2.5  67.1
2024-02-21 22:00   4.0   5.0    33  10.1   2.2  57.9
2024-02-21 21:00   2.0   2.1    71  11.8   2.3  51.9
2024-02-21 20:00   1.5   1.6   302  14.2   5.4  55.0
2024-02-21 19:00   5.6   6.5   219  15.2   5.6  52.4
2024-02-21 18:00   2.1   2.4   236  16.2   5.1  47.3